Time;durP1;ratioP1;P1;durP2;ratioP2;P2;SDS_P1;SDS_P2;PMS_P1;PMS_P2;Temp;Humidity;BMP_temperature;BMP_pressure;BME280_temperature;BME280_humidity;BME280_pressure;Samples;Min_cycle;Max_cycle;Signal;HPM_P1;HPM_P2
2023/07/07 00:00:57;;;;;;;6.78;2.92;;;18.40;78.20;;;;;;5019156;28;20048;-80
2023/07/07 00:03:22;;;;;;;6.90;2.90;;;18.40;78.20;;;;;;5030793;28;20082;-79
2023/07/07 00:05:48;;;;;;;6.47;3.15;;;18.40;78.30;;;;;;5030839;28;20498;-80
2023/07/07 00:08:14;;;;;;;7.05;3.10;;;18.40;78.30;;;;;;5003033;28;20029;-76
2023/07/07 00:10:42;;;;;;;6.03;3.08;;;18.40;78.30;;;;;;5004617;28;20048;-81
2023/07/07 00:13:09;;;;;;;6.47;3.28;;;18.40;78.30;;;;;;5056685;23;20040;-83
2023/07/07 00:15:35;;;;;;;6.22;2.90;;;18.40;78.30;;;;;;5058788;28;20025;-83
2023/07/07 00:18:00;;;;;;;5.97;2.78;;;18.40;78.30;;;;;;5066875;28;20393;-82
2023/07/07 00:20:25;;;;;;;5.50;2.70;;;18.40;78.30;;;;;;5058441;28;20078;-82
2023/07/07 00:22:55;;;;;;;6.53;3.03;;;18.40;78.20;;;;;;5066866;28;20380;-82
2023/07/07 00:25:21;;;;;;;6.05;3.15;;;18.40;78.30;;;;;;5019081;28;20022;-82
2023/07/07 00:27:46;;;;;;;6.00;3.30;;;18.40;78.20;;;;;;5029300;28;20449;-83
2023/07/07 00:30:13;;;;;;;6.22;3.05;;;18.40;78.30;;;;;;5042228;28;20582;-82
2023/07/07 00:32:38;;;;;;;5.68;3.15;;;18.40;78.40;;;;;;5042319;28;20032;-82
2023/07/07 00:35:04;;;;;;;6.13;3.08;;;18.40;78.40;;;;;;5041824;28;21392;-81
2023/07/07 00:37:30;;;;;;;5.10;2.90;;;18.40;78.40;;;;;;5037639;28;20380;-82
2023/07/07 00:39:55;;;;;;;5.63;3.20;;;18.40;78.30;;;;;;5052056;28;20038;-82
2023/07/07 00:42:21;;;;;;;7.15;3.28;;;18.40;78.30;;;;;;5037248;28;20044;-81
2023/07/07 00:45:04;;;;;;;7.10;3.17;;;18.40;78.40;;;;;;5025138;28;20041;-82
2023/07/07 00:47:31;;;;;;;5.63;3.10;;;18.40;78.40;;;;;;5035485;28;20025;-82
2023/07/07 00:49:57;;;;;;;5.60;3.10;;;18.40;78.60;;;;;;5029281;28;20078;-82
2023/07/07 00:52:23;;;;;;;7.03;3.30;;;18.40;78.50;;;;;;5036640;28;20437;-82
2023/07/07 00:54:48;;;;;;;6.32;3.35;;;18.40;78.60;;;;;;5054545;28;20032;-83
2023/07/07 00:57:14;;;;;;;6.07;3.10;;;18.40;78.60;;;;;;5049328;28;20391;-81
2023/07/07 00:59:42;;;;;;;6.40;3.20;;;18.40;78.60;;;;;;5055000;28;20032;-82
2023/07/07 01:02:13;;;;;;;6.00;3.20;;;18.40;78.50;;;;;;5036789;28;20021;-82
2023/07/07 01:04:48;;;;;;;5.97;3.20;;;18.40;78.50;;;;;;5045010;28;20056;-81
2023/07/07 01:07:29;;;;;;;6.07;3.03;;;18.40;78.40;;;;;;5036609;28;20111;-82
2023/07/07 01:09:54;;;;;;;6.43;3.50;;;18.40;78.40;;;;;;5054007;28;20032;-81
2023/07/07 01:12:20;;;;;;;6.15;3.35;;;18.40;78.40;;;;;;5055054;28;20402;-83
2023/07/07 01:14:47;;;;;;;6.90;3.60;;;18.40;78.30;;;;;;5036121;28;20179;-80
2023/07/07 01:17:34;;;;;;;6.03;3.00;;;18.50;78.30;;;;;;5033348;28;20491;-82
2023/07/07 01:20:18;;;;;;;7.90;3.40;;;18.40;78.10;;;;;;5036132;28;20033;-82
2023/07/07 01:22:43;;;;;;;7.95;3.47;;;18.40;78.20;;;;;;5051275;28;20023;-82
2023/07/07 01:25:26;;;;;;;5.40;2.90;;;18.40;78.20;;;;;;5034272;28;20100;-82
2023/07/07 01:28:00;;;;;;;5.50;3.08;;;18.40;78.30;;;;;;5060123;28;20017;-82
2023/07/07 01:30:33;;;;;;;5.82;3.20;;;18.40;78.20;;;;;;5052354;28;20029;-80
2023/07/07 01:33:06;;;;;;;6.00;3.50;;;18.30;78.80;;;;;;5055554;28;20017;-82
2023/07/07 01:35:32;;;;;;;5.45;3.13;;;18.30;78.20;;;;;;5055900;28;20021;-82
2023/07/07 01:38:00;;;;;;;6.50;3.30;;;18.30;78.30;;;;;;5036745;28;20033;-82
2023/07/07 01:40:42;;;;;;;5.80;3.20;;;18.30;78.40;;;;;;5069728;28;20025;-80
2023/07/07 01:43:16;;;;;;;6.38;3.28;;;18.30;78.30;;;;;;5035012;28;20467;-82
2023/07/07 01:45:52;;;;;;;5.78;3.28;;;18.30;78.30;;;;;;5029040;28;20479;-82
2023/07/07 01:48:30;;;;;;;5.80;2.80;;;18.30;78.20;;;;;;5046836;28;20059;-82
2023/07/07 01:50:56;;;;;;;6.38;3.38;;;18.30;78.30;;;;;;5034898;28;20025;-82
2023/07/07 01:53:25;;;;;;;6.63;3.25;;;18.30;78.20;;;;;;5037646;28;20163;-82
2023/07/07 01:55:55;;;;;;;7.43;2.85;;;18.30;78.30;;;;;;5055315;28;20028;-82
2023/07/07 01:58:22;;;;;;;5.70;2.97;;;18.30;78.10;;;;;;5048578;28;20024;-82
2023/07/07 02:00:50;;;;;;;5.53;3.13;;;18.30;78.20;;;;;;5034961;28;20499;-83
2023/07/07 02:03:16;;;;;;;6.07;3.42;;;18.30;78.20;;;;;;5052611;28;20562;-82
2023/07/07 02:05:42;;;;;;;7.22;3.20;;;18.30;78.30;;;;;;5034833;28;20033;-82
2023/07/07 02:08:07;;;;;;;5.88;3.10;;;18.30;78.10;;;;;;5045919;28;20021;-81
2023/07/07 02:10:33;;;;;;;5.97;3.30;;;18.30;78.20;;;;;;5034620;28;20060;-82
2023/07/07 02:12:58;;;;;;;6.55;3.90;;;18.30;78.10;;;;;;5028294;28;20033;-82
2023/07/07 02:15:24;;;;;;;6.28;3.35;;;18.30;78.10;;;;;;5014941;28;20025;-82
2023/07/07 02:17:50;;;;;;;6.32;3.30;;;18.30;78.60;;;;;;5066935;28;20482;-81
2023/07/07 02:20:16;;;;;;;7.00;3.45;;;18.30;78.10;;;;;;5053296;28;20016;-82
2023/07/07 02:22:41;;;;;;;6.80;3.20;;;18.30;78.00;;;;;;5068820;28;20021;-82
2023/07/07 02:25:07;;;;;;;7.22;3.63;;;18.30;78.20;;;;;;5058252;28;20100;-82
2023/07/07 02:27:33;;;;;;;6.45;3.38;;;18.30;78.20;;;;;;5067859;28;20032;-82
2023/07/07 02:29:59;;;;;;;6.65;3.22;;;18.30;78.20;;;;;;5035662;28;20031;-82
2023/07/07 02:32:25;;;;;;;6.47;3.30;;;18.30;78.10;;;;;;5019437;28;20025;-82
2023/07/07 02:34:55;;;;;;;5.40;3.17;;;18.30;78.10;;;;;;5038421;28;20029;-82
2023/07/07 02:37:21;;;;;;;8.73;3.97;;;18.30;78.00;;;;;;5049330;28;20028;-82
2023/07/07 02:39:47;;;;;;;5.35;2.88;;;18.30;78.00;;;;;;5018227;28;20086;-80
2023/07/07 02:42:13;;;;;;;7.00;3.67;;;18.30;78.20;;;;;;5045723;28;20510;-82
2023/07/07 02:44:39;;;;;;;5.75;3.10;;;18.30;77.80;;;;;;5031943;28;20028;-80
2023/07/07 02:47:05;;;;;;;5.90;3.47;;;18.30;77.90;;;;;;5047053;28;20100;-81
2023/07/07 02:49:31;;;;;;;6.30;3.35;;;18.40;77.90;;;;;;5069115;28;20046;-82
2023/07/07 02:51:56;;;;;;;6.45;3.47;;;18.30;77.70;;;;;;5037963;28;20032;-82
2023/07/07 02:54:22;;;;;;;6.40;3.80;;;18.30;77.70;;;;;;5037526;28;20021;-82
2023/07/07 02:56:47;;;;;;;6.60;3.55;;;18.30;77.70;;;;;;5031132;28;20025;-82
2023/07/07 02:59:13;;;;;;;6.07;3.42;;;18.30;77.70;;;;;;5055394;28;20429;-82
2023/07/07 03:01:44;;;;;;;6.78;3.22;;;18.30;77.60;;;;;;5037798;28;20029;-82
2023/07/07 03:04:10;;;;;;;6.22;3.20;;;18.30;77.70;;;;;;5046128;28;20024;-82
2023/07/07 03:06:37;;;;;;;7.03;3.42;;;18.20;77.60;;;;;;5022629;28;20033;-84
2023/07/07 03:09:03;;;;;;;5.72;3.30;;;18.20;77.70;;;;;;5069378;28;20059;-83
2023/07/07 03:11:29;;;;;;;6.78;3.40;;;18.20;77.70;;;;;;5079004;28;20020;-83
2023/07/07 03:13:54;;;;;;;5.88;3.50;;;18.20;77.70;;;;;;5065748;28;20052;-83
2023/07/07 03:16:23;;;;;;;5.53;3.35;;;18.20;77.80;;;;;;5049536;28;20377;-83
2023/07/07 03:18:51;;;;;;;6.20;3.42;;;18.20;77.70;;;;;;5058820;28;20044;-81
2023/07/07 03:21:18;;;;;;;7.13;3.70;;;18.20;77.70;;;;;;5058481;28;20394;-82
2023/07/07 03:23:43;;;;;;;6.45;3.40;;;18.20;77.70;;;;;;5062595;28;20406;-82
2023/07/07 03:26:11;;;;;;;8.13;3.53;;;18.20;77.70;;;;;;5050785;28;20021;-82
2023/07/07 03:28:37;;;;;;;5.60;3.35;;;18.20;77.60;;;;;;5043672;28;20060;-83
2023/07/07 03:31:18;;;;;;;6.05;3.17;;;18.10;77.60;;;;;;5041371;28;20028;-83
2023/07/07 03:33:45;;;;;;;6.15;3.40;;;18.20;77.50;;;;;;5041288;28;20033;-84
2023/07/07 03:36:12;;;;;;;5.70;3.10;;;18.10;77.50;;;;;;5062044;28;20037;-83
2023/07/07 03:38:39;;;;;;;7.25;3.53;;;18.20;77.60;;;;;;5065469;28;20051;-82
2023/07/07 03:41:05;;;;;;;6.38;3.30;;;18.20;77.60;;;;;;5060581;28;20022;-83
2023/07/07 03:43:37;;;;;;;6.47;2.92;;;18.20;77.50;;;;;;5054267;28;20025;-82
2023/07/07 03:46:03;;;;;;;;;;;18.20;77.60;;;;;;5069466;28;20474;-81
2023/07/07 03:48:29;;;;;;;6.15;3.25;;;18.20;77.60;;;;;;5041730;28;19905;-83
2023/07/07 03:50:56;;;;;;;6.80;3.47;;;18.10;77.50;;;;;;5075556;28;20059;-82
2023/07/07 03:53:22;;;;;;;5.75;3.70;;;18.20;77.50;;;;;;5072831;28;20448;-82
2023/07/07 03:55:47;;;;;;;7.13;3.60;;;18.20;77.50;;;;;;5077756;28;20021;-82
2023/07/07 03:58:12;;;;;;;5.93;3.30;;;18.10;77.50;;;;;;5075728;28;20028;-82
2023/07/07 04:00:38;;;;;;;6.32;3.40;;;18.20;77.60;;;;;;5039450;28;20526;-82
2023/07/07 04:03:03;;;;;;;6.82;3.63;;;18.10;77.50;;;;;;5038919;28;20025;-83
2023/07/07 04:05:29;;;;;;;6.25;3.42;;;18.20;77.50;;;;;;5053498;28;20017;-82
2023/07/07 04:07:54;;;;;;;6.97;3.58;;;18.20;77.50;;;;;;5059335;28;20021;-83
2023/07/07 04:10:20;;;;;;;7.57;3.67;;;18.20;77.50;;;;;;5065923;28;20029;-81
2023/07/07 04:12:45;;;;;;;7.07;3.70;;;18.20;77.40;;;;;;5033850;28;20605;-82
2023/07/07 04:15:11;;;;;;;6.63;3.50;;;18.20;77.40;;;;;;5034769;28;20037;-82
2023/07/07 04:17:36;;;;;;;7.22;3.58;;;18.20;77.40;;;;;;5037256;28;20040;-82
2023/07/07 04:20:05;;;;;;;7.25;3.50;;;18.20;77.40;;;;;;5057075;28;20074;-83
2023/07/07 04:22:30;;;;;;;7.10;3.75;;;18.20;77.40;;;;;;5056113;28;20082;-81
2023/07/07 04:25:14;;;;;;;6.85;3.40;;;18.20;77.40;;;;;;5056103;28;20464;-82
2023/07/07 04:27:40;;;;;;;6.15;3.47;;;18.20;77.40;;;;;;5050887;28;20062;-82
2023/07/07 04:30:07;;;;;;;6.70;3.83;;;18.20;77.50;;;;;;5017737;28;20117;-82
2023/07/07 04:32:32;;;;;;;7.18;3.65;;;18.20;77.40;;;;;;5018081;28;20039;-83
2023/07/07 04:34:59;;;;;;;5.97;3.40;;;18.20;77.50;;;;;;5054605;28;20424;-82
2023/07/07 04:37:25;;;;;;;5.53;3.50;;;18.20;77.50;;;;;;5056320;28;20109;-83
2023/07/07 04:39:50;;;;;;;6.53;3.47;;;18.10;77.60;;;;;;5037467;28;20138;-80
2023/07/07 04:42:16;;;;;;;6.53;3.40;;;18.20;77.70;;;;;;5037766;28;20063;-83
2023/07/07 04:44:42;;;;;;;7.28;3.40;;;18.20;77.70;;;;;;5038729;28;20025;-80
2023/07/07 04:47:07;;;;;;;6.53;3.30;;;18.20;77.80;;;;;;5043893;28;20021;-82
2023/07/07 04:49:33;;;;;;;5.38;3.40;;;18.20;77.90;;;;;;5048769;28;20402;-83
2023/07/07 04:51:58;;;;;;;6.57;3.13;;;18.20;77.90;;;;;;5038432;28;20507;-82
2023/07/07 04:54:24;;;;;;;7.00;3.40;;;18.10;77.90;;;;;;5059390;28;20029;-82
2023/07/07 04:56:49;;;;;;;7.68;3.20;;;18.10;78.00;;;;;;5064939;28;20035;-82
2023/07/07 04:59:16;;;;;;;6.97;3.80;;;18.10;78.00;;;;;;5056396;28;20037;-82
2023/07/07 05:01:42;;;;;;;7.10;3.40;;;18.10;78.10;;;;;;5073053;28;20013;-83
2023/07/07 05:04:08;;;;;;;6.28;3.53;;;18.10;78.20;;;;;;5048127;28;20031;-84
2023/07/07 05:06:36;;;;;;;7.60;3.55;;;18.10;78.20;;;;;;5053399;28;20422;-81
2023/07/07 05:09:03;;;;;;;7.05;2.97;;;18.20;78.30;;;;;;5034036;28;20099;-81
2023/07/07 05:11:31;;;;;;;7.28;3.78;;;18.20;78.40;;;;;;5026363;28;20029;-80
2023/07/07 05:13:57;;;;;;;6.80;3.33;;;18.10;78.30;;;;;;5050957;28;20071;-81
2023/07/07 05:16:30;;;;;;;5.68;3.42;;;18.20;78.50;;;;;;5024576;28;20029;-80
2023/07/07 05:18:56;;;;;;;5.45;3.20;;;18.20;78.60;;;;;;5067346;28;20040;-80
2023/07/07 05:21:24;;;;;;;5.40;3.15;;;18.20;78.60;;;;;;5053407;28;20390;-81
2023/07/07 05:23:52;;;;;;;6.47;3.10;;;18.20;78.70;;;;;;5057801;28;20033;-81
2023/07/07 05:26:18;;;;;;;6.75;3.42;;;18.20;78.70;;;;;;5032569;28;20052;-83
2023/07/07 05:28:43;;;;;;;6.90;3.10;;;18.20;78.70;;;;;;5014963;28;20100;-80
2023/07/07 05:31:09;;;;;;;6.38;3.42;;;18.20;78.70;;;;;;5011625;28;20117;-80
2023/07/07 05:33:36;;;;;;;9.05;3.40;;;18.10;78.60;;;;;;5013243;28;20418;-82
2023/07/07 05:36:04;;;;;;;10.50;3.78;;;18.20;78.80;;;;;;5035324;28;20051;-79
2023/07/07 05:38:30;;;;;;;6.95;3.15;;;18.20;78.70;;;;;;5048036;28;20465;-82
2023/07/07 05:40:56;;;;;;;7.13;3.10;;;18.20;78.80;;;;;;5048988;28;20028;-80
2023/07/07 05:43:23;;;;;;;6.80;3.17;;;18.20;78.90;;;;;;5065841;28;20537;-85
2023/07/07 05:46:01;;;;;;;7.32;3.20;;;18.20;78.90;;;;;;5056353;28;20021;-80
2023/07/07 05:48:27;;;;;;;10.80;3.85;;;18.20;78.80;;;;;;5041620;28;20063;-82
2023/07/07 05:50:56;;;;;;;10.90;3.60;;;18.20;78.80;;;;;;5069131;28;20024;-82
2023/07/07 05:53:21;;;;;;;8.02;3.10;;;18.30;78.70;;;;;;5033484;28;20128;-81
2023/07/07 05:55:47;;;;;;;7.07;3.50;;;18.40;78.40;;;;;;5013940;28;20057;-81
2023/07/07 05:58:15;;;;;;;10.55;3.10;;;18.40;78.00;;;;;;5021759;28;20046;-80
2023/07/07 06:00:41;;;;;;;6.78;3.08;;;18.50;77.90;;;;;;5012970;28;20034;-81
2023/07/07 06:03:06;;;;;;;7.38;3.10;;;18.50;77.70;;;;;;5036270;28;20552;-82
2023/07/07 06:05:33;;;;;;;6.72;3.10;;;18.60;77.80;;;;;;5032666;28;20028;-81
2023/07/07 06:07:59;;;;;;;8.65;3.30;;;18.50;77.60;;;;;;5031975;28;20029;-82
2023/07/07 06:10:24;;;;;;;8.48;3.30;;;18.50;77.60;;;;;;5049235;28;20037;-80
2023/07/07 06:12:50;;;;;;;9.07;3.05;;;18.50;77.60;;;;;;5035121;28;20817;-82
2023/07/07 06:15:16;;;;;;;7.03;3.00;;;18.50;77.70;;;;;;5047906;28;20025;-85
2023/07/07 06:17:44;;;;;;;6.43;3.45;;;18.50;77.80;;;;;;5031547;28;20491;-81
2023/07/07 06:20:11;;;;;;;7.45;3.03;;;18.50;77.80;;;;;;5027874;28;20032;-81
2023/07/07 06:22:36;;;;;;;7.32;3.00;;;18.50;77.80;;;;;;5040954;28;20025;-81
2023/07/07 06:25:03;;;;;;;6.10;2.90;;;18.50;77.80;;;;;;5024114;28;20546;-84
2023/07/07 06:27:28;;;;;;;7.18;3.20;;;18.50;77.80;;;;;;5027431;28;20086;-83
2023/07/07 06:29:53;;;;;;;9.25;3.38;;;18.50;77.80;;;;;;5048574;28;20032;-83
2023/07/07 06:32:19;;;;;;;7.32;2.85;;;18.50;77.80;;;;;;5032720;28;20759;-81
2023/07/07 06:34:44;;;;;;;7.38;3.10;;;18.60;77.90;;;;;;5039962;28;20063;-82
2023/07/07 06:37:10;;;;;;;5.05;2.88;;;18.60;77.90;;;;;;5055541;28;20485;-81
2023/07/07 06:39:35;;;;;;;6.50;2.80;;;18.60;77.90;;;;;;5069073;28;20068;-81
2023/07/07 06:42:01;;;;;;;6.65;2.70;;;18.60;77.90;;;;;;5058769;28;20021;-82
2023/07/07 06:44:27;;;;;;;6.55;3.00;;;18.50;77.80;;;;;;5053219;28;20017;-83
2023/07/07 06:46:52;;;;;;;7.03;2.90;;;18.60;77.90;;;;;;5057549;28;20025;-83
2023/07/07 06:49:18;;;;;;;6.68;2.60;;;18.60;77.80;;;;;;5053050;28;20048;-83
2023/07/07 06:51:44;;;;;;;5.55;2.60;;;18.60;77.80;;;;;;5037349;28;20029;-83
2023/07/07 06:54:10;;;;;;;6.93;2.53;;;18.60;77.80;;;;;;5020703;28;20040;-83
2023/07/07 06:56:35;;;;;;;4.90;2.28;;;18.60;77.80;;;;;;5040290;28;20041;-83
2023/07/07 06:59:03;;;;;;;5.80;2.30;;;18.60;77.70;;;;;;5024243;28;20037;-84
2023/07/07 07:01:28;;;;;;;7.00;2.67;;;18.60;77.80;;;;;;5057185;28;20108;-82
2023/07/07 07:03:54;;;;;;;6.05;2.55;;;18.70;77.80;;;;;;5056430;28;20112;-82
2023/07/07 07:06:19;;;;;;;6.18;2.50;;;18.70;77.80;;;;;;5069141;28;20054;-84
2023/07/07 07:08:45;;;;;;;6.82;2.53;;;18.70;77.70;;;;;;5050832;28;20029;-85
2023/07/07 07:11:10;;;;;;;5.53;2.50;;;18.70;77.80;;;;;;5070245;28;20087;-84
2023/07/07 07:13:36;;;;;;;4.53;2.28;;;18.70;77.60;;;;;;5053113;28;20036;-84
2023/07/07 07:16:02;;;;;;;9.35;2.50;;;18.70;77.50;;;;;;5065321;28;20076;-84
2023/07/07 07:18:27;;;;;;;5.30;2.50;;;18.80;77.60;;;;;;5021194;28;20053;-83
2023/07/07 07:20:54;;;;;;;6.78;2.40;;;18.80;77.50;;;;;;5038845;28;20068;-83
2023/07/07 07:23:20;;;;;;;4.72;2.40;;;18.80;77.40;;;;;;5017934;28;20810;-83
2023/07/07 07:25:46;;;;;;;5.05;2.25;;;18.80;77.30;;;;;;5032942;28;20486;-84
2023/07/07 07:28:15;;;;;;;4.95;2.25;;;18.90;77.40;;;;;;5060943;28;20021;-82
2023/07/07 07:30:41;;;;;;;5.82;2.25;;;18.90;77.20;;;;;;5063415;28;20028;-81
2023/07/07 07:33:12;;;;;;;4.43;2.13;;;18.90;77.10;;;;;;5050519;28;20037;-83
2023/07/07 07:35:38;;;;;;;6.13;2.10;;;18.90;77.10;;;;;;5055947;28;20020;-86
2023/07/07 07:38:04;;;;;;;4.65;2.20;;;19.00;77.00;;;;;;5057895;28;20085;-85
2023/07/07 07:40:30;;;;;;;5.32;2.20;;;19.00;76.90;;;;;;5058771;28;20061;-85
2023/07/07 07:42:55;;;;;;;4.57;2.25;;;19.10;77.00;;;;;;5071867;28;20706;-85
2023/07/07 07:45:22;;;;;;;6.28;2.53;;;19.10;76.90;;;;;;5051212;28;20028;-85
2023/07/07 07:47:48;;;;;;;4.88;2.35;;;19.10;76.80;;;;;;5062515;28;20029;-85
2023/07/07 07:50:15;;;;;;;5.00;2.40;;;19.10;76.80;;;;;;5056969;28;20020;-86
2023/07/07 07:52:41;;;;;;;4.20;2.22;;;19.20;76.90;;;;;;5069435;28;20017;-86
2023/07/07 07:55:06;;;;;;;5.18;2.45;;;19.10;76.80;;;;;;5046391;28;20030;-85
2023/07/07 07:57:32;;;;;;;3.90;2.15;;;19.00;76.80;;;;;;5028937;28;20040;-85
2023/07/07 07:59:57;;;;;;;4.15;2.22;;;19.10;76.90;;;;;;5052113;28;20025;-84
2023/07/07 08:02:23;;;;;;;5.72;2.45;;;18.90;76.90;;;;;;5061058;28;20823;-85
2023/07/07 08:04:49;;;;;;;5.50;2.20;;;19.30;77.10;;;;;;5050672;28;20421;-85
2023/07/07 08:07:15;;;;;;;5.18;2.00;;;19.10;77.00;;;;;;5048788;28;20338;-87
2023/07/07 08:09:40;;;;;;;4.13;2.10;;;19.60;77.30;;;;;;5058279;28;20155;-85
2023/07/07 08:12:08;;;;;;;4.38;1.92;;;19.10;77.10;;;;;;5054144;28;20033;-84
2023/07/07 08:14:33;;;;;;;3.72;2.00;;;19.10;77.00;;;;;;5050815;28;20043;-85
2023/07/07 08:17:08;;;;;;;6.88;2.50;;;19.20;77.00;;;;;;5038090;28;20025;-85
2023/07/07 08:19:36;;;;;;;5.07;2.53;;;19.20;77.00;;;;;;5050427;28;20486;-84
2023/07/07 08:22:14;;;;;;;4.05;2.22;;;19.30;77.00;;;;;;5061414;28;20092;-85
2023/07/07 08:24:43;;;;;;;4.72;2.08;;;19.20;77.00;;;;;;5057285;28;20028;-85
2023/07/07 08:27:09;;;;;;;4.57;2.05;;;19.20;77.00;;;;;;5059468;28;20021;-84
2023/07/07 08:29:35;;;;;;;5.63;2.25;;;19.20;76.90;;;;;;5057196;28;20092;-85
2023/07/07 08:32:00;;;;;;;4.38;2.30;;;19.40;77.00;;;;;;5044338;28;20063;-84
2023/07/07 08:34:26;;;;;;;4.38;2.20;;;19.20;76.90;;;;;;5045894;28;20028;-85
2023/07/07 08:36:59;;;;;;;4.45;2.22;;;19.30;76.90;;;;;;5071428;28;20036;-84
2023/07/07 08:39:24;;;;;;;3.80;2.00;;;19.30;76.80;;;;;;5047243;28;20040;-86
2023/07/07 08:41:59;;;;;;;3.15;2.00;;;19.20;76.80;;;;;;5053383;28;20024;-85
2023/07/07 08:44:26;;;;;;;4.32;2.08;;;19.30;76.70;;;;;;5064352;28;20017;-85
2023/07/07 08:47:10;;;;;;;3.97;2.00;;;19.30;76.80;;;;;;5050759;28;20084;-84
2023/07/07 08:49:55;;;;;;;3.67;2.10;;;19.30;76.70;;;;;;5056050;28;20032;-85
2023/07/07 08:52:29;;;;;;;3.70;2.08;;;19.30;76.60;;;;;;5039393;28;20033;-85
2023/07/07 08:55:17;;;;;;;6.07;2.20;;;19.40;76.80;;;;;;5059041;28;20031;-85
2023/07/07 08:58:13;;;;;;;3.17;1.90;;;19.40;76.80;;;;;;5022044;28;20025;-85
2023/07/07 09:01:08;;;;;;;3.25;1.73;;;19.40;76.70;;;;;;5022714;28;20029;-84
2023/07/07 09:03:53;;;;;;;3.47;1.92;;;19.50;76.60;;;;;;5037410;28;20038;-86
2023/07/07 09:06:46;;;;;;;3.45;1.90;;;19.50;76.40;;;;;;5064426;28;20084;-84
2023/07/07 09:09:30;;;;;;;3.97;1.88;;;19.50;76.30;;;;;;5046793;28;20132;-85
2023/07/07 09:12:05;;;;;;;4.50;2.10;;;19.60;76.30;;;;;;5080705;28;20039;-86
2023/07/07 09:14:31;;;;;;;4.50;1.88;;;19.60;76.20;;;;;;5069995;28;20040;-85
2023/07/07 09:16:59;;;;;;;3.63;1.77;;;19.60;76.10;;;;;;5044908;28;20120;-85
2023/07/07 09:19:36;;;;;;;4.18;1.80;;;19.70;76.20;;;;;;5050756;28;20036;-86
2023/07/07 09:22:13;;;;;;;3.50;2.00;;;19.70;76.10;;;;;;5043035;28;20099;-86
2023/07/07 09:24:52;;;;;;;3.03;1.90;;;19.70;76.10;;;;;;5042102;28;20176;-85
2023/07/07 09:27:27;;;;;;;3.75;1.80;;;19.70;76.20;;;;;;5038653;28;20056;-85
2023/07/07 09:30:01;;;;;;;2.90;1.70;;;19.70;76.20;;;;;;5041212;28;20028;-85
2023/07/07 09:32:27;;;;;;;3.45;1.80;;;19.70;76.40;;;;;;5061949;28;20187;-85
2023/07/07 09:34:52;;;;;;;3.78;2.03;;;19.70;76.30;;;;;;5077806;28;20079;-84
2023/07/07 09:37:36;;;;;;;3.55;1.77;;;19.70;76.30;;;;;;5050835;28;20486;-85
2023/07/07 09:40:38;;;;;;;3.03;1.73;;;19.60;76.20;;;;;;5044486;28;20029;-85
2023/07/07 09:43:23;;;;;;;4.13;2.05;;;19.70;76.40;;;;;;5016724;28;20036;-85
2023/07/07 09:46:21;;;;;;;4.18;1.98;;;19.70;76.40;;;;;;5076384;28;20025;-84
2023/07/07 09:49:00;;;;;;;3.58;1.95;;;19.70;76.50;;;;;;5038704;28;20078;-85
2023/07/07 09:51:44;;;;;;;3.22;1.77;;;19.70;76.50;;;;;;5021984;28;20025;-84
2023/07/07 09:54:13;;;;;;;3.40;2.08;;;19.70;76.50;;;;;;5028847;28;20064;-85
2023/07/07 09:56:46;;;;;;;3.60;1.88;;;19.70;76.70;;;;;;5023702;28;20022;-85
2023/07/07 09:59:32;;;;;;;3.95;1.65;;;19.70;76.60;;;;;;5017592;28;20025;-86
2023/07/07 10:02:00;;;;;;;4.20;2.10;;;19.70;76.60;;;;;;5006439;28;20116;-84
2023/07/07 10:04:29;;;;;;;2.58;1.60;;;19.80;76.70;;;;;;5043968;28;20045;-84
2023/07/07 10:07:01;;;;;;;3.08;1.60;;;19.70;76.70;;;;;;5039865;28;20025;-84
2023/07/07 10:09:28;;;;;;;3.08;1.55;;;19.70;76.60;;;;;;5032191;28;20035;-84
2023/07/07 10:11:55;;;;;;;3.50;1.80;;;19.70;76.70;;;;;;5041608;28;20029;-83
2023/07/07 10:14:21;;;;;;;2.97;1.67;;;19.70;76.60;;;;;;5029938;28;20087;-84
2023/07/07 10:17:08;;;;;;;3.38;1.70;;;19.80;76.70;;;;;;5042206;28;20021;-85
2023/07/07 10:19:49;;;;;;;3.67;1.90;;;19.70;76.60;;;;;;5041792;28;20127;-86
2023/07/07 10:22:15;;;;;;;3.05;1.55;;;19.80;76.70;;;;;;5037761;28;20021;-85
2023/07/07 10:24:42;;;;;;;3.28;1.83;;;19.80;76.60;;;;;;5030944;28;20124;-86
2023/07/07 10:27:14;;;;;;;3.80;2.10;;;19.70;76.60;;;;;;5035647;28;20441;-86
2023/07/07 10:29:43;;;;;;;2.78;1.80;;;19.80;76.60;;;;;;5017682;28;20268;-85
2023/07/07 10:32:17;;;;;;;4.05;1.80;;;19.80;76.60;;;;;;5021555;28;20025;-85
2023/07/07 10:34:46;;;;;;;3.78;1.90;;;19.80;76.70;;;;;;5015293;28;20030;-84
2023/07/07 10:37:27;;;;;;;3.72;1.70;;;19.80;76.60;;;;;;5025662;28;20104;-84
2023/07/07 10:39:57;;;;;;;4.47;1.90;;;19.90;76.50;;;;;;5038442;28;20033;-84
2023/07/07 10:42:24;;;;;;;4.63;1.95;;;19.80;76.40;;;;;;5040486;28;20021;-85
2023/07/07 10:44:55;;;;;;;4.25;1.70;;;19.90;76.30;;;;;;5032379;28;20016;-86
2023/07/07 10:47:32;;;;;;;3.03;1.63;;;19.90;76.30;;;;;;5020470;28;20029;-86
2023/07/07 10:50:00;;;;;;;3.28;1.70;;;19.90;76.20;;;;;;5000822;28;20026;-85
2023/07/07 10:52:54;;;;;;;3.67;1.80;;;19.90;76.20;;;;;;5031879;28;20061;-86
2023/07/07 10:55:26;;;;;;;3.50;1.85;;;19.90;76.20;;;;;;5002907;28;20100;-85
2023/07/07 10:58:00;;;;;;;2.72;1.48;;;20.00;76.30;;;;;;5027519;28;20097;-87
2023/07/07 11:00:35;;;;;;;2.80;1.65;;;19.90;76.30;;;;;;5053427;28;20035;-87
2023/07/07 11:03:39;;;;;;;3.45;1.67;;;19.90;76.30;;;;;;5034972;28;20033;-85
2023/07/07 11:06:27;;;;;;;2.90;1.60;;;19.90;76.40;;;;;;5038996;28;20022;-85
2023/07/07 11:09:24;;;;;;;3.35;1.65;;;19.90;76.50;;;;;;5037701;28;20586;-85
2023/07/07 11:12:20;;;;;;;3.45;1.70;;;19.80;76.60;;;;;;5030343;28;20041;-87
2023/07/07 11:15:27;;;;;;;3.60;1.77;;;19.80;76.70;;;;;;5007827;28;20065;-86
2023/07/07 11:18:21;;;;;;;3.00;1.70;;;19.80;76.60;;;;;;4999377;28;20038;-85
2023/07/07 11:20:59;;;;;;;3.42;1.90;;;19.80;76.70;;;;;;5034387;28;20025;-85
2023/07/07 11:23:43;;;;;;;9.05;2.10;;;19.80;76.70;;;;;;5008374;28;20036;-84
2023/07/07 11:26:24;;;;;;;10.82;2.30;;;19.80;76.50;;;;;;5026345;28;20022;-85
2023/07/07 11:29:34;;;;;;;11.73;2.03;;;19.70;76.80;;;;;;5036033;28;20024;-87
2023/07/07 11:32:18;;;;;;;13.88;2.30;;;19.80;76.80;;;;;;5017973;28;20040;-86
2023/07/07 11:35:16;;;;;;;12.18;2.50;;;19.70;76.80;;;;;;5016484;28;20117;-85
2023/07/07 11:38:13;;;;;;;11.05;2.08;;;19.70;76.90;;;;;;5015362;28;20041;-84
2023/07/07 11:40:48;;;;;;;12.95;2.55;;;19.70;77.00;;;;;;5032730;28;20030;-88
2023/07/07 11:43:35;;;;;;;12.20;2.58;;;19.70;77.10;;;;;;5016245;28;20029;-87
2023/07/07 11:46:19;;;;;;;8.52;1.80;;;19.70;77.10;;;;;;5034788;28;20029;-86
2023/07/07 11:49:21;;;;;;;8.07;2.28;;;19.70;77.20;;;;;;5024232;28;20495;-87
2023/07/07 11:51:51;;;;;;;8.18;2.13;;;19.70;77.20;;;;;;5045464;28;20021;-86
2023/07/07 11:54:33;;;;;;;6.03;1.90;;;19.70;77.30;;;;;;5018979;28;20025;-87
2023/07/07 11:57:33;;;;;;;7.22;1.98;;;19.70;77.40;;;;;;5042956;28;20024;-85
2023/07/07 12:00:21;;;;;;;5.93;1.80;;;19.70;77.50;;;;;;5051846;28;20037;-87
2023/07/07 12:02:55;;;;;;;5.90;1.80;;;19.70;77.50;;;;;;5049702;28;20049;-87
2023/07/07 12:05:31;;;;;;;8.10;1.88;;;19.70;77.40;;;;;;5025215;28;20029;-87
2023/07/07 12:08:08;;;;;;;8.15;2.05;;;19.70;77.30;;;;;;5033002;28;20415;-86
2023/07/07 12:10:47;;;;;;;5.97;1.90;;;19.70;77.30;;;;;;5005270;28;20117;-86
2023/07/07 12:13:21;;;;;;;7.40;1.90;;;19.70;77.10;;;;;;5002089;28;20033;-86
2023/07/07 12:15:50;;;;;;;7.53;1.90;;;19.80;77.10;;;;;;5013245;28;20025;-85
2023/07/07 12:18:34;;;;;;;5.03;1.67;;;19.80;77.10;;;;;;5038614;28;20491;-85
2023/07/07 12:21:12;;;;;;;4.30;1.85;;;19.80;77.10;;;;;;5014541;28;20029;-84
2023/07/07 12:23:56;;;;;;;7.47;1.90;;;19.70;77.00;;;;;;5005118;28;20120;-85
2023/07/07 12:26:35;;;;;;;5.13;1.73;;;19.80;77.10;;;;;;4998931;28;20091;-86
2023/07/07 12:29:02;;;;;;;7.20;1.70;;;19.70;77.10;;;;;;5013973;28;20103;-85
2023/07/07 12:31:29;;;;;;;7.07;1.90;;;19.70;77.30;;;;;;5031845;28;20036;-85
2023/07/07 12:33:55;;;;;;;5.05;1.67;;;19.70;77.40;;;;;;5033707;28;20033;-84
2023/07/07 12:36:25;;;;;;;4.30;1.60;;;19.70;77.50;;;;;;5043557;28;20453;-85
2023/07/07 12:38:54;;;;;;;6.22;1.80;;;19.70;77.60;;;;;;5013953;28;20786;-85
2023/07/07 12:41:24;;;;;;;3.40;1.88;;;19.60;77.70;;;;;;5013353;28;20030;-85
2023/07/07 12:44:01;;;;;;;5.20;1.80;;;19.60;77.80;;;;;;4997551;28;20037;-86
2023/07/07 12:46:30;;;;;;;4.35;1.90;;;19.60;77.80;;;;;;5020929;28;20386;-85
2023/07/07 12:49:04;;;;;;;4.20;1.77;;;19.60;77.80;;;;;;5042065;28;20513;-85
2023/07/07 12:51:32;;;;;;;4.75;1.50;;;19.60;77.90;;;;;;5036819;28;20203;-84
2023/07/07 12:53:58;;;;;;;4.05;1.70;;;19.60;77.90;;;;;;5016729;28;20034;-85
2023/07/07 12:56:29;;;;;;;6.10;1.88;;;19.60;78.00;;;;;;5051126;28;20074;-84
2023/07/07 12:58:59;;;;;;;6.47;1.98;;;19.60;78.00;;;;;;5017001;28;20025;-84
2023/07/07 13:01:39;;;;;;;2.83;1.60;;;19.50;78.00;;;;;;5012555;28;20034;-84
2023/07/07 13:04:13;;;;;;;6.15;1.80;;;19.50;78.10;;;;;;5020954;28;20100;-85